sensor_id;sensor_type;location;lat;lon;timestamp;pressure;altitude;pressure_sealevel;temperature;humidity
18678;BME280;9469;51.114;13.914;2022-09-09T00:04:58;98408.28;;;15.79;100.00
18678;BME280;9469;51.114;13.914;2022-09-09T00:10:13;98419.22;;;15.74;100.00
18678;BME280;9469;51.114;13.914;2022-09-09T00:15:22;98413.16;;;15.89;100.00
18678;BME280;9469;51.114;13.914;2022-09-09T00:20:39;98411.94;;;15.87;100.00
18678;BME280;9469;51.114;13.914;2022-09-09T00:25:55;98409.28;;;15.74;100.00
18678;BME280;9469;51.114;13.914;2022-09-09T00:31:11;98411.72;;;15.28;100.00
18678;BME280;9469;51.114;13.914;2022-09-09T00:36:21;98405.13;;;15.37;100.00
18678;BME280;9469;51.114;13.914;2022-09-09T00:41:39;98411.97;;;15.47;100.00
18678;BME280;9469;51.114;13.914;2022-09-09T00:47:06;98411.09;;;14.94;100.00
18678;BME280;9469;51.114;13.914;2022-09-09T00:52:26;98399.31;;;15.47;100.00
18678;BME280;9469;51.114;13.914;2022-09-09T00:57:34;98406.31;;;15.64;100.00
18678;BME280;9469;51.114;13.914;2022-09-09T01:02:47;98408.13;;;15.60;100.00
18678;BME280;9469;51.114;13.914;2022-09-09T01:08:02;98408.59;;;15.38;100.00
18678;BME280;9469;51.114;13.914;2022-09-09T01:13:15;98418.19;;;15.51;100.00
18678;BME280;9469;51.114;13.914;2022-09-09T01:18:23;98422.06;;;15.65;100.00
18678;BME280;9469;51.114;13.914;2022-09-09T01:23:57;98428.66;;;15.68;100.00
18678;BME280;9469;51.114;13.914;2022-09-09T01:29:22;98425.16;;;15.79;100.00
18678;BME280;9469;51.114;13.914;2022-09-09T01:34:30;98424.59;;;15.74;100.00
18678;BME280;9469;51.114;13.914;2022-09-09T01:39:38;98416.75;;;15.81;100.00
18678;BME280;9469;51.114;13.914;2022-09-09T01:44:48;98413.53;;;14.99;100.00
18678;BME280;9469;51.114;13.914;2022-09-09T01:49:54;98408.25;;;14.55;100.00
18678;BME280;9469;51.114;13.914;2022-09-09T01:55:01;98404.59;;;14.47;100.00
18678;BME280;9469;51.114;13.914;2022-09-09T02:00:15;98406.66;;;14.29;100.00
18678;BME280;9469;51.114;13.914;2022-09-09T02:05:32;98402.00;;;14.06;100.00
18678;BME280;9469;51.114;13.914;2022-09-09T02:10:59;98402.41;;;13.96;100.00
18678;BME280;9469;51.114;13.914;2022-09-09T02:16:22;98399.44;;;14.09;100.00
18678;BME280;9469;51.114;13.914;2022-09-09T02:21:30;98401.66;;;14.07;100.00
18678;BME280;9469;51.114;13.914;2022-09-09T02:26:39;98403.22;;;14.08;100.00
18678;BME280;9469;51.114;13.914;2022-09-09T02:31:51;98412.88;;;14.01;100.00
18678;BME280;9469;51.114;13.914;2022-09-09T02:37:04;98407.75;;;13.96;100.00
18678;BME280;9469;51.114;13.914;2022-09-09T02:42:11;98408.38;;;13.60;100.00
18678;BME280;9469;51.114;13.914;2022-09-09T02:47:27;98409.53;;;13.71;100.00
18678;BME280;9469;51.114;13.914;2022-09-09T02:52:47;98419.31;;;13.67;100.00
18678;BME280;9469;51.114;13.914;2022-09-09T02:57:56;98415.28;;;13.61;100.00
18678;BME280;9469;51.114;13.914;2022-09-09T03:03:06;98410.50;;;13.46;100.00
18678;BME280;9469;51.114;13.914;2022-09-09T03:08:12;98411.38;;;13.38;100.00
18678;BME280;9469;51.114;13.914;2022-09-09T03:13:19;98416.72;;;13.38;100.00
18678;BME280;9469;51.114;13.914;2022-09-09T03:18:27;98416.06;;;13.41;100.00
18678;BME280;9469;51.114;13.914;2022-09-09T03:23:32;98428.44;;;13.45;100.00
18678;BME280;9469;51.114;13.914;2022-09-09T03:28:38;98428.19;;;13.38;100.00
18678;BME280;9469;51.114;13.914;2022-09-09T03:33:46;98418.84;;;13.44;100.00
18678;BME280;9469;51.114;13.914;2022-09-09T03:38:53;98426.50;;;13.25;100.00
18678;BME280;9469;51.114;13.914;2022-09-09T03:44:01;98423.66;;;13.30;100.00
18678;BME280;9469;51.114;13.914;2022-09-09T03:49:15;98422.13;;;13.21;100.00
18678;BME280;9469;51.114;13.914;2022-09-09T03:54:22;98420.63;;;13.03;100.00
18678;BME280;9469;51.114;13.914;2022-09-09T03:59:27;98420.34;;;13.04;100.00
18678;BME280;9469;51.114;13.914;2022-09-09T04:04:38;98413.97;;;12.88;100.00
18678;BME280;9469;51.114;13.914;2022-09-09T04:09:43;98414.00;;;13.17;100.00
18678;BME280;9469;51.114;13.914;2022-09-09T04:14:49;98426.97;;;13.07;100.00
18678;BME280;9469;51.114;13.914;2022-09-09T04:19:57;98438.34;;;12.86;100.00
18678;BME280;9469;51.114;13.914;2022-09-09T04:25:05;98428.53;;;12.99;100.00
18678;BME280;9469;51.114;13.914;2022-09-09T04:30:11;98426.97;;;13.07;100.00
18678;BME280;9469;51.114;13.914;2022-09-09T04:35:20;98425.66;;;13.13;100.00
18678;BME280;9469;51.114;13.914;2022-09-09T04:40:25;98431.44;;;13.15;100.00
18678;BME280;9469;51.114;13.914;2022-09-09T04:45:33;98429.75;;;13.10;100.00
18678;BME280;9469;51.114;13.914;2022-09-09T04:50:41;98428.91;;;15.39;100.00
18678;BME280;9469;51.114;13.914;2022-09-09T04:55:48;98424.41;;;16.66;100.00
18678;BME280;9469;51.114;13.914;2022-09-09T05:00:54;98433.56;;;14.12;100.00
18678;BME280;9469;51.114;13.914;2022-09-09T05:06:06;98431.03;;;14.73;100.00
18678;BME280;9469;51.114;13.914;2022-09-09T05:11:16;98429.25;;;17.57;99.49
18678;BME280;9469;51.114;13.914;2022-09-09T05:16:22;98427.06;;;19.33;90.39
18678;BME280;9469;51.114;13.914;2022-09-09T05:21:32;98430.72;;;20.41;86.33
18678;BME280;9469;51.114;13.914;2022-09-09T05:26:37;98451.34;;;16.85;97.66
18678;BME280;9469;51.114;13.914;2022-09-09T05:31:42;98446.56;;;14.67;100.00
18678;BME280;9469;51.114;13.914;2022-09-09T05:36:52;98447.47;;;15.44;100.00
18678;BME280;9469;51.114;13.914;2022-09-09T05:41:58;98435.75;;;18.52;99.42
18678;BME280;9469;51.114;13.914;2022-09-09T05:47:06;98444.50;;;21.09;84.54
18678;BME280;9469;51.114;13.914;2022-09-09T05:52:14;98450.88;;;19.31;91.27
18678;BME280;9469;51.114;13.914;2022-09-09T05:57:19;98448.69;;;17.00;100.00
18678;BME280;9469;51.114;13.914;2022-09-09T06:02:25;98460.09;;;16.66;100.00
18678;BME280;9469;51.114;13.914;2022-09-09T06:07:33;98457.19;;;16.71;100.00
18678;BME280;9469;51.114;13.914;2022-09-09T06:12:39;98449.31;;;17.29;100.00
18678;BME280;9469;51.114;13.914;2022-09-09T06:17:44;98451.69;;;18.83;93.88
18678;BME280;9469;51.114;13.914;2022-09-09T06:22:54;98463.31;;;19.13;92.90
18678;BME280;9469;51.114;13.914;2022-09-09T06:27:59;98463.94;;;17.62;100.00
18678;BME280;9469;51.114;13.914;2022-09-09T06:33:04;98462.41;;;18.38;97.10
18678;BME280;9469;51.114;13.914;2022-09-09T06:38:12;98458.16;;;18.18;98.24
18678;BME280;9469;51.114;13.914;2022-09-09T06:43:18;98468.69;;;18.45;97.18
18678;BME280;9469;51.114;13.914;2022-09-09T06:48:25;98458.97;;;18.83;94.61
18678;BME280;9469;51.114;13.914;2022-09-09T06:53:35;98458.81;;;18.95;93.76
18678;BME280;9469;51.114;13.914;2022-09-09T06:58:41;98464.03;;;20.52;87.87
18678;BME280;9469;51.114;13.914;2022-09-09T07:03:56;98454.13;;;22.75;77.87
18678;BME280;9469;51.114;13.914;2022-09-09T07:09:12;98454.03;;;22.37;79.14
18678;BME280;9469;51.114;13.914;2022-09-09T07:14:23;98451.44;;;23.18;75.89
18678;BME280;9469;51.114;13.914;2022-09-09T07:19:34;98453.91;;;24.20;71.08
18678;BME280;9469;51.114;13.914;2022-09-09T07:24:46;98452.06;;;23.89;72.49
18678;BME280;9469;51.114;13.914;2022-09-09T07:29:51;98456.31;;;25.69;67.12
18678;BME280;9469;51.114;13.914;2022-09-09T07:35:00;98437.50;;;26.42;65.33
18678;BME280;9469;51.114;13.914;2022-09-09T07:40:08;98449.88;;;25.86;65.38
18678;BME280;9469;51.114;13.914;2022-09-09T07:45:16;98442.00;;;28.30;59.14
18678;BME280;9469;51.114;13.914;2022-09-09T07:50:22;98450.31;;;26.71;62.99
18678;BME280;9469;51.114;13.914;2022-09-09T07:55:31;98452.13;;;28.49;60.13
18678;BME280;9469;51.114;13.914;2022-09-09T08:00:36;98455.84;;;29.97;56.91
18678;BME280;9469;51.114;13.914;2022-09-09T08:05:45;98462.91;;;27.15;61.31
18678;BME280;9469;51.114;13.914;2022-09-09T08:11:01;98453.31;;;28.48;59.77
18678;BME280;9469;51.114;13.914;2022-09-09T08:16:10;98447.00;;;30.05;56.89
18678;BME280;9469;51.114;13.914;2022-09-09T08:21:19;98455.19;;;29.64;56.32
18678;BME280;9469;51.114;13.914;2022-09-09T08:26:35;98444.13;;;30.63;52.92
18678;BME280;9469;51.114;13.914;2022-09-09T08:31:48;98457.44;;;28.20;58.04
18678;BME280;9469;51.114;13.914;2022-09-09T08:36:56;98460.69;;;26.26;63.03
18678;BME280;9469;51.114;13.914;2022-09-09T08:42:34;98476.59;;;24.65;68.39
18678;BME280;9469;51.114;13.914;2022-09-09T08:47:52;98485.88;;;24.71;69.09
18678;BME280;9469;51.114;13.914;2022-09-09T08:53:02;98484.06;;;25.09;68.54
18678;BME280;9469;51.114;13.914;2022-09-09T08:58:15;98487.66;;;24.99;69.35
18678;BME280;9469;51.114;13.914;2022-09-09T09:03:31;98484.59;;;24.24;71.69
18678;BME280;9469;51.114;13.914;2022-09-09T09:08:46;98484.13;;;24.40;72.26
18678;BME280;9469;51.114;13.914;2022-09-09T09:13:58;98482.59;;;24.97;69.11
18678;BME280;9469;51.114;13.914;2022-09-09T09:19:08;98482.59;;;24.97;68.95
18678;BME280;9469;51.114;13.914;2022-09-09T09:24:24;98486.50;;;24.96;68.57
18678;BME280;9469;51.114;13.914;2022-09-09T09:29:38;98487.78;;;23.91;74.63
18678;BME280;9469;51.114;13.914;2022-09-09T09:35:12;98498.69;;;22.71;82.63
18678;BME280;9469;51.114;13.914;2022-09-09T09:40:20;98511.25;;;22.10;84.34
18678;BME280;9469;51.114;13.914;2022-09-09T09:45:34;98540.72;;;21.14;94.64
18678;BME280;9469;51.114;13.914;2022-09-09T09:50:46;98541.06;;;20.35;100.00
18678;BME280;9469;51.114;13.914;2022-09-09T09:55:55;98540.66;;;21.54;95.60
18678;BME280;9469;51.114;13.914;2022-09-09T10:01:04;98527.41;;;21.42;96.38
18678;BME280;9469;51.114;13.914;2022-09-09T10:06:09;98531.91;;;21.24;97.36
18678;BME280;9469;51.114;13.914;2022-09-09T10:11:30;98520.19;;;21.60;97.97
18678;BME280;9469;51.114;13.914;2022-09-09T10:22:23;98504.69;;;22.19;97.41
18678;BME280;9469;51.114;13.914;2022-09-09T10:27:35;98498.31;;;22.83;93.96
18678;BME280;9469;51.114;13.914;2022-09-09T10:32:56;98486.31;;;22.84;93.56
18678;BME280;9469;51.114;13.914;2022-09-09T10:38:27;98487.88;;;23.03;94.94
18678;BME280;9469;51.114;13.914;2022-09-09T10:43:52;98492.41;;;22.42;94.23
18678;BME280;9469;51.114;13.914;2022-09-09T10:49:17;98488.31;;;21.90;95.00
18678;BME280;9469;51.114;13.914;2022-09-09T10:54:35;98474.31;;;23.06;93.05
18678;BME280;9469;51.114;13.914;2022-09-09T10:59:54;98478.78;;;22.28;94.07
18678;BME280;9469;51.114;13.914;2022-09-09T11:05:10;98467.72;;;23.49;95.38
18678;BME280;9469;51.114;13.914;2022-09-09T11:10:23;98471.59;;;23.03;89.87
18678;BME280;9469;51.114;13.914;2022-09-09T11:15:38;98458.78;;;23.45;86.74
18678;BME280;9469;51.114;13.914;2022-09-09T11:20:50;98455.31;;;23.13;88.99
18678;BME280;9469;51.114;13.914;2022-09-09T11:26:00;98459.22;;;23.40;87.41
18678;BME280;9469;51.114;13.914;2022-09-09T11:31:25;98458.72;;;22.50;85.56
18678;BME280;9469;51.114;13.914;2022-09-09T11:42:16;98452.53;;;21.60;94.81
18678;BME280;9469;51.114;13.914;2022-09-09T11:47:27;98446.19;;;21.35;100.00
18678;BME280;9469;51.114;13.914;2022-09-09T11:52:40;98443.63;;;22.39;96.50
18678;BME280;9469;51.114;13.914;2022-09-09T11:57:57;98437.41;;;22.31;94.79
18678;BME280;9469;51.114;13.914;2022-09-09T12:03:04;98436.72;;;23.01;90.30
18678;BME280;9469;51.114;13.914;2022-09-09T12:08:18;98437.44;;;22.52;89.80
18678;BME280;9469;51.114;13.914;2022-09-09T12:13:27;98436.28;;;22.50;89.94
18678;BME280;9469;51.114;13.914;2022-09-09T12:18:35;98439.75;;;22.54;89.77
18678;BME280;9469;51.114;13.914;2022-09-09T12:23:49;98399.13;;;22.96;89.27
18678;BME280;9469;51.114;13.914;2022-09-09T12:29:05;98403.31;;;23.61;86.82
18678;BME280;9469;51.114;13.914;2022-09-09T12:34:21;98397.81;;;23.78;84.69
18678;BME280;9469;51.114;13.914;2022-09-09T12:39:34;98407.81;;;24.06;83.42
18678;BME280;9469;51.114;13.914;2022-09-09T12:44:51;98399.06;;;23.52;83.50
18678;BME280;9469;51.114;13.914;2022-09-09T12:49:59;98406.06;;;22.34;80.76
18678;BME280;9469;51.114;13.914;2022-09-09T12:55:07;98394.88;;;22.74;81.82
18678;BME280;9469;51.114;13.914;2022-09-09T13:00:23;98382.44;;;23.12;79.88
18678;BME280;9469;51.114;13.914;2022-09-09T13:05:34;98380.75;;;23.74;79.44
18678;BME280;9469;51.114;13.914;2022-09-09T13:10:46;98375.00;;;23.54;78.40
18678;BME280;9469;51.114;13.914;2022-09-09T13:15:58;98363.75;;;23.63;79.53
18678;BME280;9469;51.114;13.914;2022-09-09T13:21:04;98373.00;;;23.66;80.27
18678;BME280;9469;51.114;13.914;2022-09-09T13:26:24;98360.91;;;24.53;72.78
18678;BME280;9469;51.114;13.914;2022-09-09T13:31:35;98358.09;;;24.64;71.71
18678;BME280;9469;51.114;13.914;2022-09-09T13:36:46;98353.28;;;24.34;71.86
18678;BME280;9469;51.114;13.914;2022-09-09T13:42:04;98368.22;;;24.60;69.12
18678;BME280;9469;51.114;13.914;2022-09-09T13:47:18;98359.47;;;24.89;70.11
18678;BME280;9469;51.114;13.914;2022-09-09T13:52:32;98360.03;;;24.67;68.84
18678;BME280;9469;51.114;13.914;2022-09-09T13:57:50;98373.31;;;24.54;70.04
18678;BME280;9469;51.114;13.914;2022-09-09T14:02:55;98374.06;;;23.96;72.38
18678;BME280;9469;51.114;13.914;2022-09-09T14:08:03;98361.19;;;24.11;71.74
18678;BME280;9469;51.114;13.914;2022-09-09T14:13:10;98357.88;;;23.72;74.05
18678;BME280;9469;51.114;13.914;2022-09-09T14:18:16;98356.00;;;23.58;74.16
18678;BME280;9469;51.114;13.914;2022-09-09T14:23:21;98344.72;;;23.63;75.23
18678;BME280;9469;51.114;13.914;2022-09-09T14:28:29;98339.34;;;23.45;77.23
18678;BME280;9469;51.114;13.914;2022-09-09T14:33:54;98338.91;;;23.61;79.56
18678;BME280;9469;51.114;13.914;2022-09-09T14:39:03;98339.53;;;23.93;77.59
18678;BME280;9469;51.114;13.914;2022-09-09T14:44:11;98316.63;;;23.94;77.12
18678;BME280;9469;51.114;13.914;2022-09-09T14:49:17;98318.09;;;24.13;76.12
18678;BME280;9469;51.114;13.914;2022-09-09T14:54:21;98328.59;;;24.07;75.77
18678;BME280;9469;51.114;13.914;2022-09-09T14:59:31;98335.97;;;24.10;77.43
18678;BME280;9469;51.114;13.914;2022-09-09T15:04:36;98321.72;;;23.82;76.79
18678;BME280;9469;51.114;13.914;2022-09-09T15:09:41;98329.44;;;23.94;75.33
18678;BME280;9469;51.114;13.914;2022-09-09T15:14:49;98308.00;;;23.34;80.00
18678;BME280;9469;51.114;13.914;2022-09-09T15:19:57;98329.59;;;23.62;77.82
18678;BME280;9469;51.114;13.914;2022-09-09T15:25:05;98345.88;;;23.62;76.67
18678;BME280;9469;51.114;13.914;2022-09-09T15:30:15;98335.91;;;23.27;79.11
18678;BME280;9469;51.114;13.914;2022-09-09T15:35:20;98327.44;;;23.08;80.45
18678;BME280;9469;51.114;13.914;2022-09-09T15:40:25;98336.78;;;22.43;86.50
18678;BME280;9469;51.114;13.914;2022-09-09T15:45:33;98339.09;;;22.62;88.92
18678;BME280;9469;51.114;13.914;2022-09-09T15:50:38;98343.78;;;21.33;94.41
18678;BME280;9469;51.114;13.914;2022-09-09T15:55:43;98337.19;;;21.31;92.32
18678;BME280;9469;51.114;13.914;2022-09-09T16:00:51;98327.91;;;21.25;88.42
18678;BME280;9469;51.114;13.914;2022-09-09T16:05:57;98336.56;;;21.62;85.01
18678;BME280;9469;51.114;13.914;2022-09-09T16:11:06;98330.50;;;21.86;83.00
18678;BME280;9469;51.114;13.914;2022-09-09T16:16:16;98336.97;;;21.64;83.10
18678;BME280;9469;51.114;13.914;2022-09-09T16:21:29;98336.28;;;21.88;82.95
18678;BME280;9469;51.114;13.914;2022-09-09T16:26:35;98336.75;;;22.11;82.25
18678;BME280;9469;51.114;13.914;2022-09-09T16:31:44;98335.94;;;22.14;82.71
18678;BME280;9469;51.114;13.914;2022-09-09T16:36:53;98342.03;;;21.76;84.93
18678;BME280;9469;51.114;13.914;2022-09-09T16:41:58;98353.56;;;21.59;86.20
18678;BME280;9469;51.114;13.914;2022-09-09T16:47:07;98362.31;;;21.35;89.65
18678;BME280;9469;51.114;13.914;2022-09-09T16:52:14;98362.00;;;20.38;99.37
18678;BME280;9469;51.114;13.914;2022-09-09T16:57:21;98374.06;;;19.45;100.00
18678;BME280;9469;51.114;13.914;2022-09-09T17:02:30;98373.03;;;19.26;100.00
18678;BME280;9469;51.114;13.914;2022-09-09T17:07:35;98377.06;;;18.87;100.00
18678;BME280;9469;51.114;13.914;2022-09-09T17:12:40;98379.81;;;19.17;100.00
18678;BME280;9469;51.114;13.914;2022-09-09T17:17:48;98383.44;;;19.28;100.00
18678;BME280;9469;51.114;13.914;2022-09-09T17:22:56;98381.00;;;19.19;100.00
18678;BME280;9469;51.114;13.914;2022-09-09T17:28:01;98387.94;;;19.20;100.00
18678;BME280;9469;51.114;13.914;2022-09-09T17:33:12;98394.97;;;18.76;100.00
18678;BME280;9469;51.114;13.914;2022-09-09T17:38:17;98388.34;;;18.70;100.00
18678;BME280;9469;51.114;13.914;2022-09-09T17:43:29;98397.31;;;18.55;100.00
18678;BME280;9469;51.114;13.914;2022-09-09T17:48:37;98391.03;;;18.70;100.00
18678;BME280;9469;51.114;13.914;2022-09-09T17:53:43;98399.03;;;18.89;100.00
18678;BME280;9469;51.114;13.914;2022-09-09T17:58:50;98411.72;;;19.38;100.00
18678;BME280;9469;51.114;13.914;2022-09-09T18:03:59;98413.66;;;19.14;100.00
18678;BME280;9469;51.114;13.914;2022-09-09T18:09:06;98424.84;;;18.90;100.00
18678;BME280;9469;51.114;13.914;2022-09-09T18:14:13;98437.91;;;18.66;100.00
18678;BME280;9469;51.114;13.914;2022-09-09T18:19:22;98451.41;;;18.88;100.00
18678;BME280;9469;51.114;13.914;2022-09-09T18:24:28;98451.00;;;19.12;100.00
18678;BME280;9469;51.114;13.914;2022-09-09T18:29:37;98457.38;;;18.78;100.00
18678;BME280;9469;51.114;13.914;2022-09-09T18:34:44;98456.00;;;18.65;100.00
18678;BME280;9469;51.114;13.914;2022-09-09T18:40:05;98450.25;;;18.67;100.00
18678;BME280;9469;51.114;13.914;2022-09-09T18:45:12;98458.75;;;18.91;100.00
18678;BME280;9469;51.114;13.914;2022-09-09T18:50:20;98456.50;;;19.19;100.00
18678;BME280;9469;51.114;13.914;2022-09-09T18:55:25;98449.25;;;18.75;100.00
18678;BME280;9469;51.114;13.914;2022-09-09T19:00:31;98442.41;;;18.58;100.00
18678;BME280;9469;51.114;13.914;2022-09-09T19:05:38;98453.75;;;18.29;100.00
18678;BME280;9469;51.114;13.914;2022-09-09T19:10:43;98460.69;;;18.30;100.00
18678;BME280;9469;51.114;13.914;2022-09-09T19:15:48;98462.34;;;18.76;100.00
18678;BME280;9469;51.114;13.914;2022-09-09T19:21:08;98460.13;;;18.21;100.00
18678;BME280;9469;51.114;13.914;2022-09-09T19:26:14;98459.84;;;17.87;100.00
18678;BME280;9469;51.114;13.914;2022-09-09T19:31:19;98467.63;;;17.73;100.00
18678;BME280;9469;51.114;13.914;2022-09-09T19:36:27;98476.09;;;17.56;100.00
18678;BME280;9469;51.114;13.914;2022-09-09T19:41:32;98467.31;;;17.09;100.00
18678;BME280;9469;51.114;13.914;2022-09-09T19:46:39;98467.03;;;17.30;100.00
18678;BME280;9469;51.114;13.914;2022-09-09T19:51:48;98454.88;;;17.36;100.00
18678;BME280;9469;51.114;13.914;2022-09-09T19:56:53;98466.09;;;17.06;100.00
18678;BME280;9469;51.114;13.914;2022-09-09T20:01:59;98478.00;;;17.40;100.00
18678;BME280;9469;51.114;13.914;2022-09-09T20:07:06;98481.94;;;17.27;100.00
18678;BME280;9469;51.114;13.914;2022-09-09T20:12:11;98489.47;;;16.75;100.00
18678;BME280;9469;51.114;13.914;2022-09-09T20:17:17;98495.88;;;16.70;100.00
18678;BME280;9469;51.114;13.914;2022-09-09T20:22:25;98491.22;;;16.83;100.00
18678;BME280;9469;51.114;13.914;2022-09-09T20:27:32;98488.19;;;17.00;100.00
18678;BME280;9469;51.114;13.914;2022-09-09T20:32:37;98492.53;;;17.04;100.00
18678;BME280;9469;51.114;13.914;2022-09-09T20:37:45;98489.84;;;16.89;100.00
18678;BME280;9469;51.114;13.914;2022-09-09T20:42:50;98492.34;;;16.97;100.00
18678;BME280;9469;51.114;13.914;2022-09-09T20:47:55;98493.91;;;16.83;100.00
18678;BME280;9469;51.114;13.914;2022-09-09T20:53:02;98487.41;;;16.84;100.00
18678;BME280;9469;51.114;13.914;2022-09-09T20:58:07;98499.34;;;16.71;100.00
18678;BME280;9469;51.114;13.914;2022-09-09T21:03:12;98505.13;;;16.57;100.00
18678;BME280;9469;51.114;13.914;2022-09-09T21:08:20;98512.59;;;16.36;100.00
18678;BME280;9469;51.114;13.914;2022-09-09T21:13:25;98505.06;;;16.85;100.00
18678;BME280;9469;51.114;13.914;2022-09-09T21:18:30;98511.00;;;17.06;100.00
18678;BME280;9469;51.114;13.914;2022-09-09T21:23:38;98513.03;;;16.66;100.00
18678;BME280;9469;51.114;13.914;2022-09-09T21:28:43;98508.94;;;16.56;100.00
18678;BME280;9469;51.114;13.914;2022-09-09T21:33:48;98505.72;;;16.51;100.00
18678;BME280;9469;51.114;13.914;2022-09-09T21:38:55;98509.47;;;16.62;100.00
18678;BME280;9469;51.114;13.914;2022-09-09T21:44:01;98510.28;;;16.50;100.00
18678;BME280;9469;51.114;13.914;2022-09-09T21:49:06;98509.38;;;16.30;100.00
18678;BME280;9469;51.114;13.914;2022-09-09T21:54:14;98506.13;;;16.25;100.00
18678;BME280;9469;51.114;13.914;2022-09-09T21:59:19;98499.34;;;16.15;100.00
18678;BME280;9469;51.114;13.914;2022-09-09T22:04:24;98497.31;;;16.24;100.00
18678;BME280;9469;51.114;13.914;2022-09-09T22:09:34;98483.06;;;16.64;100.00
18678;BME280;9469;51.114;13.914;2022-09-09T22:14:39;98495.34;;;16.65;100.00
18678;BME280;9469;51.114;13.914;2022-09-09T22:19:46;98483.75;;;16.61;100.00
18678;BME280;9469;51.114;13.914;2022-09-09T22:24:53;98488.38;;;16.48;100.00
18678;BME280;9469;51.114;13.914;2022-09-09T22:29:58;98486.28;;;16.41;100.00
18678;BME280;9469;51.114;13.914;2022-09-09T22:35:04;98481.03;;;16.33;100.00
18678;BME280;9469;51.114;13.914;2022-09-09T22:40:12;98473.25;;;16.28;100.00
18678;BME280;9469;51.114;13.914;2022-09-09T22:45:17;98469.53;;;16.05;100.00
18678;BME280;9469;51.114;13.914;2022-09-09T22:50:22;98477.03;;;15.99;100.00
18678;BME280;9469;51.114;13.914;2022-09-09T22:55:31;98465.63;;;16.02;100.00
18678;BME280;9469;51.114;13.914;2022-09-09T23:00:38;98470.66;;;16.04;100.00
18678;BME280;9469;51.114;13.914;2022-09-09T23:05:52;98467.75;;;16.09;100.00
18678;BME280;9469;51.114;13.914;2022-09-09T23:11:04;98462.91;;;15.87;100.00
18678;BME280;9469;51.114;13.914;2022-09-09T23:16:11;98452.78;;;15.68;100.00
18678;BME280;9469;51.114;13.914;2022-09-09T23:21:17;98455.47;;;15.56;100.00
18678;BME280;9469;51.114;13.914;2022-09-09T23:26:25;98458.81;;;15.41;100.00
18678;BME280;9469;51.114;13.914;2022-09-09T23:31:33;98461.06;;;15.39;100.00
18678;BME280;9469;51.114;13.914;2022-09-09T23:36:39;98473.59;;;15.47;100.00
18678;BME280;9469;51.114;13.914;2022-09-09T23:41:48;98472.66;;;15.43;100.00
18678;BME280;9469;51.114;13.914;2022-09-09T23:46:53;98478.50;;;15.33;100.00
18678;BME280;9469;51.114;13.914;2022-09-09T23:51:58;98470.03;;;15.31;100.00
18678;BME280;9469;51.114;13.914;2022-09-09T23:57:06;98479.28;;;15.09;100.00
